Airfield :
LOGIN :

Register | Disclaimer

   EN    FR    IT 

 










Legend :    VFR   Marginal VFR   IFR   Intensive IFR   Very Intensive IFR
Visi :
Ceiling :
>= 8 km
>= 3000ft
5 to 8 km
1000 to 3000 ft
1500m to 5 km
500 to 1000 ft
800 to 1500m
200 to 500 ft
< 800m
< 200 ft
Symbols :   Thunderstorms  Fog  Heavy snow  Heavy precipitations  Wind > 20 kt
SIGMETs :     Misc.  Thunderstorms  Icing  Turbulence  Mountain Waves  Volcanic Ashes







- Airport Elevation : 257 ft
- IATA code : MAN
- Download approach charts


EGCC - Manchester

CURRENT METAR :
  • 241750Z AUTO 29006KT 9999 NCD 11/04 Q1038 NOSIG

EXPIRED METARs :
  • 241720Z AUTO 28008KT 9999 NCD 12/04 Q1038
  • 241650Z AUTO 29010KT 9999 NCD 13/03 Q1038 NOSIG
  • 241620Z AUTO 29010KT 9999 NCD 13/03 Q1038
  • 241550Z AUTO 28012KT 9999 NCD 13/03 Q1038 NOSIG
  • 241520Z AUTO 30009KT 260V320 9999 SCT042 BKN049 13/03 Q1038 NOSIG

TAF TAF EGCC
Valid from the 24 at 18:00 until the 26 at 00:00 UTC


241701Z 2418/2524 29008KT 9999 SCT045
PROB30 2503/2508 9000
BECMG 2509/2512 21010KT
ATIS : +44 161 499 2324
No reported NOTAMs for that airfield.



MET'MAP, your aeronautical weather chart ! - Copyright ORBIFLY December 2007 - Disclaimer

ORBIFLY MET'MAP TEAM :

Programming & Development : Alexandra Zaïnal
Concept & Development : Baudouin d'Aumeries
Co-Development & Prog : Marc-Olivier Méhu
Technical & hardware support : Manuel Goepfert

Contact : metmap@orbifly.com




SOURCES & CREDITS :

   NOAA